Terminal Aerodrome Forecast
Issued by NWS Anchorage, AK

Home | Current Version | Previous Version | Text Only | Print | Product List | Glossary On
Versions: 1 2 3 4 5 6 7 8 9 10 11 12 13 14 15 16 17 18 19 20 21 22 23 24 25 26 27 28 29 30 31 32 33 34
806
FTAK31 PANC 131744
TAFANC
TAF
PANC 131744Z 1318/1424 15011KT P6SM VCSH BKN070 BKN100
      TEMPO 1318/1321 16014G26KT
     FM132100 35008KT P6SM BKN080 OVC100
     FM140400 02006KT P6SM OVC110
     FM141800 15014G23KT P6SM VCSH BKN080=

USA.gov is the U.S. government's official web portal to all federal, state and local government web resources and services.